Time,TemperatureF,DewpointF,PressureIn,WindDirection,WindDirectionDegrees,WindSpeedMPH,WindSpeedGustMPH,Humidity,HourlyPrecipIn,Conditions,Clouds,dailyrainin,SoftwareType,DateUTC
2013-05-22 00:01:00,76.0,76.0,29.79,North,0,0.0,0.0,99,0.00,,,0.00,,2013-05-21 14:01:00,
2013-05-22 00:11:00,76.0,76.0,29.79,North,0,0.0,0.0,99,0.00,,,0.00,,2013-05-21 14:11:00,
2013-05-22 00:21:00,76.0,76.0,29.79,North,0,0.0,0.0,99,0.00,,,0.00,,2013-05-21 14:21:00,
2013-05-22 00:31:00,76.0,76.0,29.79,North,0,0.0,0.0,99,0.00,,,0.00,,2013-05-21 14:31:00,
2013-05-22 00:52:00,74.0,74.0,29.77,North,0,0.0,0.0,99,0.00,,,0.00,,2013-05-21 14:52:00,
2013-05-22 01:01:00,74.0,74.0,29.77,North,0,0.0,0.0,99,0.00,,,0.00,,2013-05-21 15:01:00,
2013-05-22 01:11:00,74.0,74.0,29.77,North,0,0.0,0.0,99,0.00,,,0.00,,2013-05-21 15:11:00,
2013-05-22 01:21:00,74.0,74.0,29.77,North,0,0.0,0.0,99,0.00,,,0.00,,2013-05-21 15:21:00,
2013-05-22 01:32:00,74.0,74.0,29.77,North,0,0.0,0.0,99,0.00,,,0.00,,2013-05-21 15:32:00,
2013-05-22 01:42:00,74.0,74.0,29.76,North,0,0.0,0.0,99,0.00,,,0.00,,2013-05-21 15:42:00,
2013-05-22 01:52:00,74.0,74.0,29.76,North,0,0.0,0.0,99,0.00,,,0.00,,2013-05-21 15:52:00,
2013-05-22 02:02:00,73.0,73.0,29.75,North,0,0.0,0.0,99,0.00,,,0.00,,2013-05-21 16:02:00,
2013-05-22 02:12:00,73.0,73.0,29.75,North,0,0.0,0.0,99,0.00,,,0.00,,2013-05-21 16:12:00,
2013-05-22 02:23:00,73.0,73.0,29.75,North,0,0.0,0.0,99,0.00,,,0.00,,2013-05-21 16:23:00,
2013-05-22 02:32:00,73.0,73.0,29.75,North,0,0.0,0.0,99,0.00,,,0.00,,2013-05-21 16:32:00,
2013-05-22 02:42:00,72.0,72.0,29.74,North,0,0.0,0.0,99,0.00,,,0.00,,2013-05-21 16:42:00,
2013-05-22 02:52:00,72.0,72.0,29.74,North,0,0.0,0.0,99,0.00,,,0.00,,2013-05-21 16:52:00,
2013-05-22 03:02:00,72.0,72.0,29.73,North,0,0.0,0.0,99,0.00,,,0.00,,2013-05-21 17:02:00,
2013-05-22 03:11:00,72.0,72.0,29.73,North,0,0.0,0.0,99,0.00,,,0.00,,2013-05-21 17:11:00,
2013-05-22 03:22:00,72.0,72.0,29.72,North,0,0.0,0.0,99,0.00,,,0.00,,2013-05-21 17:22:00,
2013-05-22 03:32:00,72.0,72.0,29.72,NW,314,0.0,1.0,99,0.00,,,0.00,,2013-05-21 17:32:00,
2013-05-22 03:43:00,73.0,73.0,29.72,SW,225,0.0,1.0,99,0.00,,,0.00,,2013-05-21 17:43:00,
2013-05-22 03:52:00,73.0,73.0,29.72,SW,225,0.0,1.0,99,0.00,,,0.00,,2013-05-21 17:52:00,
2013-05-22 04:01:00,73.0,73.0,29.72,North,0,0.0,0.0,99,0.00,,,0.00,,2013-05-21 18:01:00,
2013-05-22 04:11:00,73.0,73.0,29.72,North,0,0.0,0.0,99,0.00,,,0.00,,2013-05-21 18:11:00,
2013-05-22 04:22:00,73.0,73.0,29.72,WNW,291,0.0,2.0,99,0.00,,,0.00,,2013-05-21 18:22:00,
2013-05-22 04:32:00,73.0,73.0,29.72,North,0,0.0,0.0,99,0.00,,,0.00,,2013-05-21 18:32:00,
2013-05-22 04:41:00,73.0,73.0,29.71,North,0,0.0,0.0,99,0.00,,,0.00,,2013-05-21 18:41:00,
2013-05-22 04:51:00,73.0,73.0,29.71,North,0,0.0,0.0,99,0.00,,,0.00,,2013-05-21 18:51:00,
2013-05-22 05:01:00,73.0,73.0,29.72,West,270,0.0,2.0,99,0.00,,,0.00,,2013-05-21 19:01:00,
2013-05-22 05:11:00,73.0,73.0,29.72,West,270,0.0,2.0,99,0.00,,,0.00,,2013-05-21 19:11:00,
2013-05-22 05:21:00,72.0,72.0,29.72,North,0,0.0,0.0,99,0.00,,,0.00,,2013-05-21 19:21:00,
2013-05-22 05:31:00,72.0,72.0,29.72,North,0,0.0,0.0,99,0.00,,,0.00,,2013-05-21 19:31:00,
2013-05-22 05:41:00,72.0,72.0,29.72,North,0,0.0,0.0,99,0.00,,,0.00,,2013-05-21 19:41:00,
2013-05-22 05:52:00,72.0,72.0,29.71,North,0,0.0,0.0,99,0.00,,,0.00,,2013-05-21 19:52:00,
2013-05-22 06:02:00,72.0,72.0,29.71,North,0,0.0,0.0,99,0.00,,,0.00,,2013-05-21 20:02:00,
2013-05-22 06:11:00,72.0,72.0,29.71,North,0,0.0,0.0,99,0.00,,,0.00,,2013-05-21 20:11:00,
2013-05-22 06:21:00,72.0,72.0,29.71,North,0,0.0,0.0,99,0.00,,,0.00,,2013-05-21 20:21:00,
2013-05-22 06:32:00,71.0,71.0,29.72,North,0,0.0,0.0,99,0.00,,,0.00,,2013-05-21 20:32:00,
2013-05-22 06:42:00,71.0,71.0,29.72,North,0,0.0,0.0,99,0.00,,,0.00,,2013-05-21 20:42:00,
2013-05-22 06:52:00,72.0,72.0,29.72,North,0,0.0,0.0,99,0.00,,,0.00,,2013-05-21 20:52:00,
2013-05-22 07:01:00,72.0,72.0,29.72,North,0,0.0,0.0,99,0.00,,,0.00,,2013-05-21 21:01:00,
2013-05-22 07:11:00,72.0,72.0,29.72,North,0,0.0,0.0,99,0.00,,,0.00,,2013-05-21 21:11:00,
2013-05-22 07:21:00,72.0,72.0,29.72,North,0,0.0,0.0,99,0.00,,,0.00,,2013-05-21 21:21:00,
2013-05-22 07:32:00,72.0,72.0,29.72,North,0,0.0,0.0,99,0.00,,,0.00,,2013-05-21 21:32:00,
2013-05-22 07:43:00,73.0,73.0,29.72,North,0,0.0,0.0,99,0.00,,,0.00,,2013-05-21 21:43:00,
2013-05-22 07:53:00,73.0,73.0,29.72,North,0,0.0,0.0,99,0.00,,,0.00,,2013-05-21 21:53:00,
2013-05-22 08:02:00,73.0,73.0,29.72,North,0,0.0,0.0,99,0.00,,,0.00,,2013-05-21 22:02:00,
2013-05-22 08:12:00,73.0,73.0,29.72,North,0,0.0,0.0,99,0.00,,,0.00,,2013-05-21 22:12:00,
2013-05-22 08:22:00,76.0,76.0,29.73,NW,314,0.0,2.0,99,0.00,,,0.00,,2013-05-21 22:22:00,
2013-05-22 08:33:00,79.0,79.0,29.73,North,0,0.0,0.0,99,0.00,,,0.00,,2013-05-21 22:33:00,
2013-05-22 08:42:00,79.0,79.0,29.73,North,0,0.0,0.0,99,0.00,,,0.00,,2013-05-21 22:42:00,
2013-05-22 08:52:00,82.0,82.0,29.74,NW,314,0.0,2.0,99,0.00,,,0.00,,2013-05-21 22:52:00,
2013-05-22 09:02:00,82.0,82.0,29.75,NW,311,0.0,2.0,99,0.00,,,0.00,,2013-05-21 23:02:00,
2013-05-22 09:12:00,82.0,82.0,29.75,NW,311,0.0,2.0,99,0.00,,,0.00,,2013-05-21 23:12:00,
2013-05-22 09:22:00,89.0,89.0,29.74,NW,321,0.0,3.0,99,0.00,,,0.00,,2013-05-21 23:22:00,
2013-05-22 09:32:00,91.0,88.0,29.75,SW,225,0.0,1.0,92,0.00,,,0.00,,2013-05-21 23:32:00,
2013-05-22 09:42:00,88.0,86.0,29.75,North,5,0.0,2.0,95,0.00,,,0.00,,2013-05-21 23:42:00,
2013-05-22 09:52:00,88.0,86.0,29.75,North,5,0.0,2.0,95,0.00,,,0.00,,2013-05-21 23:52:00,
2013-05-22 10:01:00,88.0,86.0,29.75,North,5,0.0,2.0,95,0.00,,,0.00,,2013-05-22 00:01:00,
2013-05-22 10:11:00,88.0,86.0,29.75,North,5,0.0,2.0,95,0.00,,,0.00,,2013-05-22 00:11:00,
2013-05-22 10:21:00,93.0,87.0,29.74,WSW,256,0.0,2.0,84,0.00,,,0.00,,2013-05-22 00:21:00,
2013-05-22 10:31:00,93.0,87.0,29.74,WSW,256,0.0,2.0,84,0.00,,,0.00,,2013-05-22 00:31:00,
2013-05-22 10:41:00,93.0,87.0,29.74,WSW,256,0.0,2.0,84,0.00,,,0.00,,2013-05-22 00:41:00,
2013-05-22 10:51:00,96.0,85.0,29.75,ESE,102,2.0,5.0,70,0.00,,,0.00,,2013-05-22 00:51:00,
2013-05-22 11:01:00,94.0,84.0,29.74,ENE,74,2.0,4.0,72,0.00,,,0.00,,2013-05-22 01:01:00,
2013-05-22 11:11:00,94.0,84.0,29.74,ENE,74,2.0,4.0,72,0.00,,,0.00,,2013-05-22 01:11:00,
2013-05-22 11:21:00,96.0,84.0,29.73,East,88,2.0,4.0,68,0.00,,,0.00,,2013-05-22 01:21:00,
2013-05-22 11:32:00,94.0,84.0,29.72,East,86,0.0,5.0,72,0.00,,,0.00,,2013-05-22 01:32:00,
2013-05-22 11:41:00,93.0,83.0,29.73,East,100,2.0,4.0,72,0.00,,,0.00,,2013-05-22 01:41:00,
2013-05-22 11:52:00,93.0,83.0,29.73,East,100,2.0,4.0,72,0.00,,,0.00,,2013-05-22 01:52:00,
2013-05-22 12:01:00,93.0,83.0,29.73,East,100,2.0,4.0,72,0.00,,,0.00,,2013-05-22 02:01:00,
2013-05-22 12:10:00,89.0,82.0,29.71,ENE,76,2.0,6.0,80,0.00,,,0.00,,2013-05-22 02:10:00,
2013-05-22 12:11:00,93.0,83.0,29.73,East,100,2.0,4.0,72,0.00,,,0.00,,2013-05-22 02:11:00,
2013-05-22 12:21:00,89.0,83.0,29.72,ENE,65,0.0,5.0,82,0.00,,,0.00,,2013-05-22 02:21:00,
2013-05-22 12:31:00,89.0,82.0,29.71,ENE,76,2.0,6.0,80,0.00,,,0.00,,2013-05-22 02:31:00,
2013-05-22 12:42:00,89.0,82.0,29.71,ENE,76,2.0,6.0,80,0.00,,,0.00,,2013-05-22 02:42:00,
2013-05-22 12:52:00,89.0,82.0,29.71,ENE,76,2.0,6.0,80,0.00,,,0.00,,2013-05-22 02:52:00,
2013-05-22 13:01:00,89.0,82.0,29.71,ENE,76,2.0,6.0,80,0.00,,,0.00,,2013-05-22 03:01:00,
2013-05-22 13:33:00,91.0,83.0,29.69,NE,50,2.0,6.0,77,0.00,,,0.00,,2013-05-22 03:33:00,
2013-05-22 13:43:00,89.0,83.0,29.68,East,94,2.0,8.0,83,0.00,,,0.00,,2013-05-22 03:43:00,
2013-05-22 13:53:00,89.0,83.0,29.68,East,94,2.0,8.0,83,0.00,,,0.00,,2013-05-22 03:53:00,
2013-05-22 14:03:00,91.0,84.0,29.67,East,83,2.0,8.0,80,0.00,,,0.00,,2013-05-22 04:03:00,
2013-05-22 14:12:00,91.0,84.0,29.67,East,83,2.0,8.0,80,0.00,,,0.00,,2013-05-22 04:12:00,
2013-05-22 14:22:00,90.0,84.0,29.67,NE,42,0.0,7.0,83,0.00,,,0.00,,2013-05-22 04:22:00,
2013-05-22 14:33:00,90.0,84.0,29.67,NE,42,0.0,7.0,83,0.00,,,0.00,,2013-05-22 04:33:00,
2013-05-22 14:42:00,89.0,84.0,29.66,NE,46,1.0,5.0,84,0.00,,,0.00,,2013-05-22 04:42:00,
2013-05-22 14:53:00,89.0,84.0,29.66,NE,46,1.0,5.0,84,0.00,,,0.00,,2013-05-22 04:53:00,
2013-05-22 15:02:00,90.0,83.0,29.66,ENE,65,0.0,6.0,80,0.00,,,0.00,,2013-05-22 05:02:00,
2013-05-22 15:10:00,90.0,83.0,29.66,ENE,61,1.0,6.0,81,0.00,,,0.00,,2013-05-22 05:10:00,
2013-05-22 15:11:00,90.0,84.0,29.66,NE,50,2.0,7.0,82,0.00,,,0.00,,2013-05-22 05:11:00,
2013-05-22 15:21:00,90.0,84.0,29.66,NE,50,2.0,7.0,82,0.00,,,0.00,,2013-05-22 05:21:00,
2013-05-22 15:31:00,90.0,83.0,29.66,ENE,61,1.0,6.0,81,0.00,,,0.00,,2013-05-22 05:31:00,
2013-05-22 15:42:00,90.0,83.0,29.66,ENE,61,1.0,6.0,81,0.00,,,0.00,,2013-05-22 05:42:00,
2013-05-22 15:52:00,90.0,83.0,29.66,ENE,61,1.0,6.0,81,0.00,,,0.00,,2013-05-22 05:52:00,
2013-05-22 16:01:00,90.0,83.0,29.66,ENE,61,1.0,6.0,81,0.00,,,0.00,,2013-05-22 06:01:00,
2013-05-22 16:21:00,87.0,83.0,29.66,NE,51,2.0,8.0,88,0.00,,,0.00,,2013-05-22 06:21:00,
2013-05-22 16:32:00,87.0,83.0,29.66,NE,51,2.0,8.0,88,0.00,,,0.00,,2013-05-22 06:32:00,
2013-05-22 16:42:00,87.0,83.0,29.66,NE,51,2.0,8.0,88,0.00,,,0.00,,2013-05-22 06:42:00,
2013-05-22 16:52:00,87.0,83.0,29.66,NE,51,2.0,8.0,88,0.00,,,0.00,,2013-05-22 06:52:00,
2013-05-22 17:01:00,85.0,84.0,29.66,NE,48,1.0,4.0,98,0.00,,,0.00,,2013-05-22 07:01:00,
2013-05-22 17:11:00,85.0,84.0,29.66,NE,48,1.0,4.0,98,0.00,,,0.00,,2013-05-22 07:11:00,
2013-05-22 17:21:00,82.0,82.0,29.66,ENE,64,2.0,5.0,99,0.00,,,0.00,,2013-05-22 07:21:00,
2013-05-22 17:31:00,82.0,82.0,29.66,ENE,64,2.0,5.0,99,0.00,,,0.00,,2013-05-22 07:31:00,
2013-05-22 17:40:00,79.0,79.0,29.67,NNE,22,0.0,2.0,99,0.00,,,0.00,,2013-05-22 07:40:00,
2013-05-22 17:41:00,82.0,82.0,29.66,ENE,64,2.0,5.0,99,0.00,,,0.00,,2013-05-22 07:41:00,
2013-05-22 17:52:00,80.0,80.0,29.66,NE,35,1.0,3.0,99,0.00,,,0.00,,2013-05-22 07:52:00,
2013-05-22 18:02:00,79.0,79.0,29.67,NNE,22,0.0,2.0,99,0.00,,,0.00,,2013-05-22 08:02:00,
2013-05-22 18:11:00,79.0,79.0,29.67,NNE,22,0.0,2.0,99,0.00,,,0.00,,2013-05-22 08:11:00,
2013-05-22 18:21:00,79.0,79.0,29.67,NNE,22,0.0,2.0,99,0.00,,,0.00,,2013-05-22 08:21:00,
2013-05-22 18:31:00,79.0,79.0,29.67,NNE,22,0.0,2.0,99,0.00,,,0.00,,2013-05-22 08:31:00,
2013-05-22 18:52:00,79.0,79.0,29.67,NE,47,0.0,5.0,99,0.00,,,0.00,,2013-05-22 08:52:00,
2013-05-22 19:01:00,79.0,79.0,29.68,NNE,30,1.0,7.0,99,0.00,,,0.00,,2013-05-22 09:01:00,
2013-05-22 19:11:00,79.0,79.0,29.68,NNE,30,1.0,7.0,99,0.00,,,0.00,,2013-05-22 09:11:00,
2013-05-22 19:21:00,78.0,78.0,29.68,NNE,21,0.0,3.0,99,0.00,,,0.00,,2013-05-22 09:21:00,
2013-05-22 19:32:00,78.0,78.0,29.69,NNE,20,0.0,3.0,99,0.00,,,0.00,,2013-05-22 09:32:00,
2013-05-22 19:42:00,78.0,78.0,29.69,NNE,20,0.0,3.0,99,0.00,,,0.00,,2013-05-22 09:42:00,
2013-05-22 19:53:00,78.0,78.0,29.69,NNE,20,0.0,3.0,99,0.00,,,0.00,,2013-05-22 09:53:00,
2013-05-22 20:02:00,78.0,78.0,29.69,North,351,0.0,2.0,99,0.00,,,0.00,,2013-05-22 10:02:00,
2013-05-22 20:12:00,78.0,78.0,29.69,North,351,0.0,2.0,99,0.00,,,0.00,,2013-05-22 10:12:00,
2013-05-22 20:22:00,77.0,77.0,29.70,North,0,0.0,0.0,99,0.00,,,0.00,,2013-05-22 10:22:00,
2013-05-22 20:32:00,76.0,76.0,29.70,North,0,0.0,0.0,99,0.00,,,0.00,,2013-05-22 10:32:00,
2013-05-22 20:42:00,76.0,76.0,29.70,North,0,0.0,0.0,99,0.00,,,0.00,,2013-05-22 10:42:00,
2013-05-22 20:52:00,75.0,75.0,29.71,North,0,0.0,0.0,99,0.00,,,0.00,,2013-05-22 10:52:00,
2013-05-22 21:02:00,75.0,75.0,29.71,West,270,0.0,1.0,99,0.00,,,0.00,,2013-05-22 11:02:00,
2013-05-22 21:11:00,75.0,75.0,29.71,West,270,0.0,1.0,99,0.00,,,0.00,,2013-05-22 11:11:00,
2013-05-22 21:21:00,74.0,74.0,29.72,North,0,0.0,0.0,99,0.00,,,0.00,,2013-05-22 11:21:00,
2013-05-22 21:32:00,74.0,74.0,29.72,North,0,0.0,0.0,99,0.00,,,0.00,,2013-05-22 11:32:00,
2013-05-22 21:41:00,74.0,74.0,29.72,North,0,0.0,0.0,99,0.00,,,0.00,,2013-05-22 11:41:00,
2013-05-22 21:52:00,74.0,74.0,29.71,North,0,0.0,0.0,99,0.00,,,0.00,,2013-05-22 11:52:00,
2013-05-22 22:02:00,74.0,74.0,29.71,North,0,0.0,0.0,99,0.00,,,0.00,,2013-05-22 12:02:00,
2013-05-22 22:11:00,74.0,74.0,29.71,North,0,0.0,0.0,99,0.00,,,0.00,,2013-05-22 12:11:00,
2013-05-22 22:22:00,73.0,73.0,29.70,North,0,0.0,0.0,99,0.00,,,0.00,,2013-05-22 12:22:00,
2013-05-22 22:32:00,73.0,73.0,29.70,North,0,0.0,0.0,99,0.00,,,0.00,,2013-05-22 12:32:00,
2013-05-22 22:42:00,73.0,73.0,29.70,North,0,0.0,0.0,99,0.00,,,0.00,,2013-05-22 12:42:00,
2013-05-22 22:52:00,73.0,73.0,29.71,North,0,0.0,0.0,99,0.00,,,0.00,,2013-05-22 12:52:00,
2013-05-22 23:01:00,73.0,73.0,29.71,North,0,0.0,0.0,99,0.00,,,0.00,,2013-05-22 13:01:00,
2013-05-22 23:11:00,73.0,73.0,29.71,North,0,0.0,0.0,99,0.00,,,0.00,,2013-05-22 13:11:00,
2013-05-22 23:21:00,72.0,72.0,29.71,North,0,0.0,0.0,99,0.00,,,0.00,,2013-05-22 13:21:00,
2013-05-22 23:31:00,72.0,72.0,29.70,North,0,0.0,0.0,99,0.00,,,0.00,,2013-05-22 13:31:00,
2013-05-22 23:41:00,72.0,72.0,29.70,North,0,0.0,0.0,99,0.00,,,0.00,,2013-05-22 13:41:00,
2013-05-22 23:52:00,72.0,72.0,29.70,North,0,0.0,0.0,99,0.00,,,0.00,,2013-05-22 13:52:00,